Linn Creek, MO (65052)

08:21 CST le 29 janvier 2015 (GMT -0600)
Near Big Surf | Change Station
CLOSE
Current Station
Stations météorologiques personnelles
Location: Linn Creek, MO
Altitude: 902 ft
Stations météo à proximité

Alt. 902 ft 38.07 °N, 92.69 °W | Updated 9 seconds ago

Couvert
Couvert
41.5 ° F
Paraît 42 ° F
N
1.8
Vent Variable Vent de ONO
Gusts 2.5 mph

Aujourd'hui
Haut(e) -- | Bas -- ° F
--% Risque de précip.
Hier
Haut(e) -- | Bas -- ° F
Precip. -- pouce
7:17 AM 5:30 PM
Lune gibbeuse croissante, 74% visible
Pression 30.13 pouce
Visibilité 10.0 Miles terrestres
Nuages Couvert 1900 ft
Refroidissement éolien 42 ° F
Point de rosée 36 ° F
Humidité 81%
Précipitations 0.00 pouce
Profondeur de la couche neigeuse Non disponible.
UV 0.0 sur 12
Pollen 2.50 sur 12
Qualité de l'air Non disponible.
Flu Activity Non disponible.
METAR KH21 291355Z AUTO 30015G20KT 10SM OVC019 05/01 A3013 RMK AO2

More Conditions Fewer Conditions

Pression 30.13 pouce
Visibilité 10.0 Miles terrestres
Nuages Couvert 1900 ft
Refroidissement éolien 42 ° F
Point de rosée 36 ° F
Humidité 81%
Précipitations 0.00 pouce
Profondeur de la couche neigeuse Non disponible.
UV 0.0 sur 12
Pollen 2.50 sur 12
Qualité de l'air Non disponible.
Flu Activity Non disponible.
METAR KH21 291355Z AUTO 30015G20KT 10SM OVC019 05/01 A3013 RMK AO2

More Conditions Fewer Conditions

10-Day Weather Forecast

Almanac

Astronomie

Jan. 29, 2015 Lever Coucher
Temps réel
Crépuscule civil
Crépuscule nautique
Crépuscule astronomique
Lune
Durée de lumière visible
Longueur du jour
Tomorrow will be .
, % of the Moon is Illuminated

Extrêmes aujourd'hui

State Highs State Lows

Community

WunderPhotos

Upload Photos

1,791,434 Photos téléchargées !

WunderBlogs® & News

Nearby

Qualité de l'air

  Qualité de l'air Indice de la qualité de l'air Polluant
Not available.

Épaisseur de neige

Station Depth Altitude

Activité sismique

Ville Distance Mag. Time & Date
Minimum magnitude displayed is 2.5.

Températures des eaux côtières

Lieu Température

Stations météo à proximité